createdAt,value
2018-06-28T00:00:31.339Z,18.58
2018-06-28T00:02:59.660Z,18.60
2018-06-28T00:05:27.994Z,18.70
2018-06-28T00:07:56.305Z,18.77
2018-06-28T00:10:25.943Z,18.75
2018-06-28T00:12:53.654Z,18.86
2018-06-28T00:15:22.565Z,18.92
2018-06-28T00:17:50.881Z,18.98
2018-06-28T00:20:19.210Z,19.03
2018-06-28T00:22:47.575Z,19.05
2018-06-28T00:25:15.908Z,18.96
2018-06-28T00:27:43.649Z,18.99
2018-06-28T00:30:12.561Z,19.01
2018-06-28T00:32:40.299Z,19.02
2018-06-28T00:35:09.213Z,19.01
2018-06-28T00:37:37.534Z,18.88
2018-06-28T00:40:05.856Z,18.82
2018-06-28T00:42:33.643Z,18.74
2018-06-28T00:45:02.545Z,18.59
2018-06-28T00:47:30.865Z,18.36
2018-06-28T00:49:59.185Z,18.20
2018-06-28T00:52:26.920Z,18.24
2018-06-28T00:54:55.822Z,18.26
2018-06-28T00:57:24.144Z,18.17
2018-06-28T00:59:51.879Z,18.29
2018-06-28T01:02:20.208Z,18.30
2018-06-28T01:04:48.691Z,18.29
2018-06-28T01:07:17.019Z,18.38
2018-06-28T01:09:45.920Z,18.40
2018-06-28T01:12:15.120Z,18.22
2018-06-28T01:14:42.865Z,18.06
2018-06-28T01:17:11.192Z,18.03
2018-06-28T01:19:40.094Z,18.00
2018-06-28T01:22:07.853Z,17.88
2018-06-28T01:24:36.738Z,17.98
2018-06-28T01:27:04.483Z,17.96
2018-06-28T01:29:33.388Z,17.77
2018-06-28T01:32:01.707Z,17.73
2018-06-28T01:34:30.033Z,17.79
2018-06-28T01:36:57.782Z,17.65
2018-06-28T01:39:26.685Z,17.60
2018-06-28T01:41:55.001Z,17.71
2018-06-28T01:44:23.364Z,17.71
2018-06-28T01:46:51.120Z,17.78
2018-06-28T01:49:19.420Z,17.81
2018-06-28T01:51:48.319Z,17.66
2018-06-28T01:54:16.061Z,17.77
2018-06-28T01:56:44.385Z,17.83
2018-06-28T01:59:13.280Z,17.72
2018-06-28T02:01:41.601Z,17.61
2018-06-28T02:04:09.916Z,17.43
2018-06-28T02:06:38.241Z,17.43
2018-06-28T02:09:06.576Z,17.53
2018-06-28T02:11:34.898Z,17.62
2018-06-28T02:14:02.631Z,17.71
2018-06-28T02:16:31.530Z,17.81
2018-06-28T02:18:59.852Z,17.89
2018-06-28T02:21:27.595Z,17.84
2018-06-28T02:23:56.496Z,17.74
2018-06-28T02:26:24.816Z,17.75
2018-06-28T02:28:52.555Z,17.78
2018-06-28T02:31:21.459Z,17.82
2018-06-28T02:33:49.780Z,17.82
2018-06-28T02:36:18.106Z,17.82
2018-06-28T02:38:45.845Z,17.80
2018-06-28T02:41:14.758Z,17.67
2018-06-28T02:43:42.505Z,17.72
2018-06-28T02:46:11.442Z,17.73
2018-06-28T02:48:39.182Z,17.76
2018-06-28T02:53:36.433Z,17.84
2018-06-28T02:56:04.755Z,17.75
2018-06-28T02:58:33.076Z,17.75
2018-06-28T03:01:01.397Z,17.71
2018-06-28T03:03:29.940Z,17.72
2018-06-28T03:05:58.034Z,17.74
2018-06-28T03:08:25.782Z,17.78
2018-06-28T03:10:54.682Z,17.82
2018-06-28T03:13:22.427Z,17.97
2018-06-28T03:15:51.322Z,17.92
2018-06-28T03:18:19.639Z,17.91
2018-06-28T03:20:47.458Z,17.96
2018-06-28T03:23:16.286Z,17.89
2018-06-28T03:25:44.612Z,17.89
2018-06-28T03:28:12.934Z,17.99
2018-06-28T03:30:41.262Z,18.15
2018-06-28T03:33:09.593Z,18.29
2018-06-28T03:35:37.347Z,18.39
2018-06-28T03:38:05.757Z,18.42
2018-06-28T03:40:34.000Z,18.42
2018-06-28T03:43:02.898Z,18.40
2018-06-28T03:45:30.650Z,18.49
2018-06-28T03:47:58.994Z,18.61
2018-06-28T03:50:27.904Z,18.76
2018-06-28T03:52:56.229Z,18.93
2018-06-28T03:55:23.979Z,18.99
2018-06-28T03:57:52.286Z,18.99
2018-06-28T04:00:20.619Z,19.01
2018-06-28T04:02:49.537Z,19.03
2018-06-28T04:05:17.286Z,19.14
2018-06-28T04:07:46.195Z,19.25
2018-06-28T04:10:14.542Z,19.34
2018-06-28T04:12:42.874Z,19.41
2018-06-28T04:15:11.209Z,19.48
2018-06-28T04:17:38.955Z,19.54
2018-06-28T04:20:07.502Z,19.58
2018-06-28T04:22:35.834Z,19.66
2018-06-28T04:25:04.162Z,19.75
2018-06-28T04:27:33.078Z,19.82
2018-06-28T04:30:01.384Z,19.89
2018-06-28T04:32:29.706Z,19.97
2018-06-28T04:34:57.441Z,20.07
2018-06-28T04:37:25.895Z,20.22
2018-06-28T04:39:54.663Z,20.33
2018-06-28T04:42:22.981Z,20.38
2018-06-28T04:44:50.724Z,20.42
2018-06-28T04:47:19.718Z,20.45
2018-06-28T04:49:48.127Z,20.48
2018-06-28T04:52:16.378Z,20.52
2018-06-28T04:54:44.116Z,20.59
2018-06-28T04:57:13.007Z,20.64
2018-06-28T04:59:41.638Z,20.71
2018-06-28T05:02:11.754Z,20.78
2018-06-28T05:04:38.609Z,20.86
2018-06-28T05:07:06.969Z,20.92
2018-06-28T05:09:35.262Z,20.99
2018-06-28T05:12:02.994Z,21.09
2018-06-28T05:14:31.891Z,21.17
2018-06-28T05:16:59.802Z,21.24
2018-06-28T05:19:28.400Z,21.30
2018-06-28T05:21:57.210Z,21.34
2018-06-28T05:24:24.961Z,21.39
2018-06-28T05:26:53.298Z,21.45
2018-06-28T05:29:22.199Z,21.51
2018-06-28T05:31:50.528Z,21.58
2018-06-28T05:34:18.853Z,21.63
2018-06-28T05:36:47.161Z,21.68
2018-06-28T05:39:14.912Z,21.75
2018-06-28T05:41:43.242Z,21.78
2018-06-28T05:44:12.132Z,21.80
2018-06-28T05:46:39.884Z,21.84
2018-06-28T05:49:08.206Z,21.88
2018-06-28T05:51:36.768Z,21.94
2018-06-28T05:54:05.483Z,22.00
2018-06-28T05:56:33.775Z,22.04
2018-06-28T05:59:02.095Z,22.07
2018-06-28T06:01:30.568Z,22.10
2018-06-28T06:03:58.153Z,22.14
2018-06-28T06:06:27.058Z,22.18
2018-06-28T06:08:55.377Z,22.19
2018-06-28T06:11:23.118Z,22.23
2018-06-28T06:13:52.027Z,22.29
2018-06-28T06:16:19.774Z,22.33
2018-06-28T06:18:48.097Z,22.37
2018-06-28T06:21:16.989Z,22.43
2018-06-28T06:23:44.736Z,22.47
2018-06-28T06:26:13.075Z,22.47
2018-06-28T06:28:44.885Z,22.48
2018-06-28T06:33:45.366Z,22.57
2018-06-28T06:36:13.715Z,22.59
2018-06-28T06:38:42.022Z,22.63
2018-06-28T06:41:10.325Z,22.65
2018-06-28T06:43:38.065Z,22.66
2018-06-28T06:46:09.414Z,22.69
2018-06-28T06:48:40.368Z,22.72
2018-06-28T06:51:08.026Z,22.75
2018-06-28T06:53:38.479Z,22.79
2018-06-28T06:56:06.642Z,22.81
2018-06-28T06:58:34.384Z,22.85
2018-06-28T07:01:03.280Z,22.89
2018-06-28T07:03:31.848Z,22.92
2018-06-28T07:05:59.674Z,22.95
2018-06-28T07:08:27.876Z,22.97
2018-06-28T07:10:56.319Z,23.00
2018-06-28T07:13:25.172Z,23.04
2018-06-28T07:15:52.936Z,23.08
2018-06-28T07:18:21.843Z,23.13
2018-06-28T07:20:49.573Z,23.18
2018-06-28T07:23:18.479Z,23.21
2018-06-28T07:25:46.793Z,23.23
2018-06-28T07:28:15.108Z,23.24
2018-06-28T07:30:42.882Z,23.26
2018-06-28T07:33:11.229Z,23.27
2018-06-28T07:35:40.082Z,23.27
2018-06-28T07:38:08.393Z,23.28
2018-06-28T07:40:36.139Z,23.30
2018-06-28T07:43:05.039Z,23.33
2018-06-28T07:45:32.816Z,23.34
2018-06-28T07:48:01.681Z,23.35
2018-06-28T07:50:29.427Z,23.37
2018-06-28T07:52:57.771Z,23.35
2018-06-28T07:55:26.776Z,23.37
2018-06-28T07:57:55.030Z,23.40
2018-06-28T08:00:23.361Z,23.40
2018-06-28T08:02:52.375Z,23.37
2018-06-28T08:05:20.699Z,23.41
2018-06-28T08:07:48.441Z,23.43
2018-06-28T08:10:17.330Z,23.47
2018-06-28T08:12:45.657Z,23.53
2018-06-28T08:15:13.409Z,23.55
2018-06-28T08:17:42.311Z,23.57
2018-06-28T08:20:10.646Z,23.58
2018-06-28T08:22:38.394Z,23.57
2018-06-28T08:25:06.722Z,23.61
2018-06-28T08:27:35.049Z,23.61
2018-06-28T08:30:03.354Z,23.63
2018-06-28T08:32:31.670Z,23.66
2018-06-28T08:35:00.002Z,23.70
2018-06-28T08:37:28.894Z,23.73
2018-06-28T08:39:56.665Z,23.73
2018-06-28T08:42:24.957Z,23.70
2018-06-28T08:44:53.860Z,23.70
2018-06-28T08:47:22.191Z,23.70
2018-06-28T08:49:50.506Z,23.73
2018-06-28T08:52:18.827Z,23.76
2018-06-28T08:54:47.156Z,23.78
2018-06-28T08:57:15.532Z,23.81
2018-06-28T08:59:43.846Z,23.86
2018-06-28T09:02:12.180Z,23.87
2018-06-28T09:04:40.539Z,23.88
2018-06-28T09:07:08.839Z,23.91
2018-06-28T09:09:36.588Z,23.95
2018-06-28T09:12:05.489Z,23.95
2018-06-28T09:14:33.227Z,23.98
2018-06-28T09:17:02.128Z,23.99
2018-06-28T09:19:30.440Z,24.02
2018-06-28T09:21:58.448Z,24.07
2018-06-28T09:24:26.616Z,24.08
2018-06-28T09:26:55.922Z,24.05
2018-06-28T09:29:24.210Z,24.06
2018-06-28T09:31:52.525Z,24.09
2018-06-28T09:34:20.272Z,24.16
2018-06-28T09:36:48.725Z,24.21
2018-06-28T09:39:16.928Z,24.29
2018-06-28T09:41:45.829Z,24.38
2018-06-28T09:44:13.572Z,24.44
2018-06-28T09:46:42.681Z,24.50
2018-06-28T09:49:11.591Z,24.53
2018-06-28T09:51:39.914Z,24.56
2018-06-28T09:54:07.657Z,24.63
2018-06-28T09:56:35.981Z,24.68
2018-06-28T09:59:04.920Z,24.72
2018-06-28T10:01:32.660Z,24.73
2018-06-28T10:04:01.557Z,24.76
2018-06-28T10:06:29.880Z,24.77
2018-06-28T10:08:58.211Z,24.81
2018-06-28T10:11:25.979Z,24.87
2018-06-28T10:13:54.285Z,24.91
2018-06-28T10:16:23.197Z,25.02
2018-06-28T10:18:50.921Z,25.10
2018-06-28T10:21:19.827Z,25.18
2018-06-28T10:23:48.140Z,25.21
2018-06-28T10:26:16.477Z,25.21
2018-06-28T10:28:44.792Z,25.24
2018-06-28T10:31:13.102Z,25.27
2018-06-28T10:33:42.592Z,25.27
2018-06-28T10:36:09.754Z,25.30
2018-06-28T10:38:38.084Z,25.33
2018-06-28T10:41:06.092Z,25.37
2018-06-28T10:43:35.585Z,25.39
2018-06-28T10:46:03.317Z,25.41
2018-06-28T10:48:31.644Z,25.46
2018-06-28T10:51:00.537Z,25.47
2018-06-28T10:53:28.877Z,25.47
2018-06-28T10:55:56.611Z,25.47
2018-06-28T10:58:25.122Z,25.50
2018-06-28T11:00:53.285Z,25.52
2018-06-28T11:03:22.178Z,25.53
2018-06-28T11:05:49.920Z,25.55
2018-06-28T11:08:18.851Z,25.59
2018-06-28T11:10:47.135Z,25.63
2018-06-28T11:13:15.460Z,25.69
2018-06-28T11:15:43.816Z,25.72
2018-06-28T11:18:12.106Z,25.73
2018-06-28T11:20:40.412Z,25.82
2018-06-28T11:23:08.724Z,25.96
2018-06-28T11:25:36.467Z,26.08
2018-06-28T11:28:04.789Z,26.19
2018-06-28T11:30:33.108Z,26.30
2018-06-28T11:33:01.432Z,26.37
2018-06-28T11:35:29.753Z,26.46
2018-06-28T11:37:58.654Z,26.53
2018-06-28T11:40:26.405Z,26.63
2018-06-28T11:42:54.726Z,26.75
2018-06-28T11:45:23.636Z,26.89
2018-06-28T11:47:52.543Z,27.03
2018-06-28T11:50:20.595Z,27.14
2018-06-28T11:52:48.913Z,27.25
2018-06-28T11:55:17.233Z,27.32
2018-06-28T11:57:44.974Z,27.41
2018-06-28T12:00:13.287Z,27.51
2018-06-28T12:02:41.760Z,27.61
2018-06-28T12:05:10.148Z,27.71
2018-06-28T12:07:38.410Z,27.77
2018-06-28T12:10:07.311Z,27.89
2018-06-28T12:12:35.873Z,27.99
2018-06-28T12:15:03.972Z,28.10
2018-06-28T12:17:32.532Z,28.22
2018-06-28T12:20:00.622Z,28.34
2018-06-28T12:24:57.267Z,28.54
2018-06-28T12:27:25.590Z,28.74
2018-06-28T12:29:53.905Z,28.86
2018-06-28T12:32:22.556Z,28.97
2018-06-28T12:34:50.864Z,29.03
2018-06-28T12:37:18.975Z,29.07
2018-06-28T12:39:47.863Z,29.18
2018-06-28T12:42:15.610Z,29.25
2018-06-28T12:44:47.157Z,29.34
2018-06-28T12:47:27.425Z,29.44
2018-06-28T12:49:55.939Z,29.49
2018-06-28T12:52:36.279Z,29.49
2018-06-28T12:55:04.026Z,29.55
2018-06-28T12:57:34.255Z,29.63
2018-06-28T13:00:02.596Z,29.75
2018-06-28T13:02:32.019Z,29.86
2018-06-28T13:05:00.345Z,29.90
2018-06-28T13:07:30.057Z,30.03
2018-06-28T13:10:05.355Z,30.19
2018-06-28T13:12:30.705Z,30.32
2018-06-28T13:14:58.446Z,30.48
2018-06-28T13:17:26.770Z,30.63
2018-06-28T13:19:55.710Z,30.77
2018-06-28T13:22:32.089Z,30.88
2018-06-28T13:25:00.430Z,31.01
2018-06-28T13:27:29.028Z,31.11
2018-06-28T13:29:57.926Z,31.28
2018-06-28T13:32:26.246Z,31.42
2018-06-28T13:34:54.606Z,31.62
2018-06-28T13:37:23.621Z,31.80
2018-06-28T13:39:51.942Z,31.79
2018-06-28T13:42:20.452Z,31.82
2018-06-28T13:44:48.595Z,31.90
2018-06-28T13:47:19.117Z,32.02
2018-06-28T13:49:47.442Z,32.15
2018-06-28T13:52:15.816Z,32.23
2018-06-28T13:54:44.088Z,32.32
2018-06-28T13:57:11.980Z,32.24
2018-06-28T13:59:40.737Z,32.20
2018-06-28T14:02:08.473Z,32.15
2018-06-28T14:04:37.370Z,32.23
2018-06-28T14:07:05.623Z,32.19
2018-06-28T14:09:34.471Z,32.20
2018-06-28T14:12:02.212Z,32.33
2018-06-28T14:14:31.110Z,32.40
2018-06-28T14:16:58.858Z,32.55
2018-06-28T14:19:27.766Z,32.69
2018-06-28T14:21:56.089Z,32.84
2018-06-28T14:24:24.396Z,33.01
2018-06-28T14:26:52.148Z,33.06
2018-06-28T14:29:21.042Z,33.16
2018-06-28T14:31:48.784Z,33.24
2018-06-28T14:34:17.697Z,33.32
2018-06-28T14:36:46.024Z,33.40
2018-06-28T14:39:14.569Z,33.48
2018-06-28T14:41:42.667Z,33.41
2018-06-28T14:44:10.403Z,33.55
2018-06-28T14:46:39.543Z,33.57
2018-06-28T14:49:07.069Z,33.46
2018-06-28T14:51:36.034Z,33.45
2018-06-28T14:54:04.350Z,33.65
2018-06-28T14:56:32.102Z,33.85
2018-06-28T14:59:00.433Z,34.05
2018-06-28T15:01:29.334Z,34.19
2018-06-28T15:03:57.654Z,34.33
2018-06-28T15:06:25.980Z,34.36
2018-06-28T15:08:55.208Z,34.38
2018-06-28T15:11:23.534Z,34.56
2018-06-28T15:13:51.281Z,34.66
2018-06-28T15:16:19.599Z,34.68
2018-06-28T15:18:47.925Z,34.57
2018-06-28T15:21:16.842Z,34.66
2018-06-28T15:23:45.167Z,34.81
2018-06-28T15:26:12.898Z,34.82
2018-06-28T15:28:41.219Z,34.88
2018-06-28T15:31:09.550Z,34.93
2018-06-28T15:33:37.869Z,35.04
2018-06-28T15:36:06.191Z,35.12
2018-06-28T15:38:34.542Z,35.26
2018-06-28T15:41:03.410Z,35.35
2018-06-28T15:43:31.730Z,35.33
2018-06-28T15:46:00.051Z,35.23
2018-06-28T15:48:28.385Z,35.30
2018-06-28T15:50:56.698Z,35.29
2018-06-28T15:53:25.026Z,35.21
2018-06-28T15:55:53.422Z,35.24
2018-06-28T15:58:21.226Z,35.27
2018-06-28T16:00:50.144Z,35.22
2018-06-28T16:03:18.686Z,35.12
2018-06-28T16:05:47.108Z,34.93
2018-06-28T16:08:15.435Z,34.94
2018-06-28T16:10:43.836Z,35.06
2018-06-28T16:13:11.615Z,35.20
2018-06-28T16:15:40.739Z,35.21
2018-06-28T16:18:08.457Z,35.08
2018-06-28T16:20:37.389Z,35.08
2018-06-28T16:23:05.720Z,34.98
2018-06-28T16:25:33.505Z,34.99
2018-06-28T16:28:02.503Z,34.95
2018-06-28T16:30:30.823Z,34.87
2018-06-28T16:32:59.503Z,34.83
2018-06-28T16:35:27.880Z,34.78
2018-06-28T16:37:57.502Z,34.74
2018-06-28T16:40:26.084Z,34.70
2018-06-28T16:42:54.475Z,34.65
2018-06-28T16:45:22.806Z,34.54
2018-06-28T16:47:51.115Z,34.47
2018-06-28T16:50:21.044Z,34.49
2018-06-28T16:52:49.488Z,34.49
2018-06-28T16:55:18.486Z,34.50
2018-06-28T16:57:47.125Z,34.54
2018-06-28T17:00:17.705Z,34.50
2018-06-28T17:02:45.450Z,34.50
2018-06-28T17:05:14.469Z,34.53
2018-06-28T17:07:43.004Z,34.24
2018-06-28T17:10:18.698Z,33.80
2018-06-28T17:12:49.568Z,33.21
2018-06-28T17:15:20.672Z,32.67
2018-06-28T17:17:49.000Z,32.19
2018-06-28T17:20:17.599Z,31.74
2018-06-28T17:22:45.725Z,31.30
2018-06-28T17:25:14.071Z,30.90
2018-06-28T17:27:41.875Z,30.51
2018-06-28T17:30:10.777Z,30.09
2018-06-28T17:32:39.824Z,29.71
2018-06-28T17:35:07.477Z,29.49
2018-06-28T17:37:35.803Z,29.29
2018-06-28T17:40:04.125Z,29.13
2018-06-28T17:42:31.908Z,28.99
2018-06-28T17:45:00.766Z,28.79
2018-06-28T17:47:29.373Z,28.66
2018-06-28T17:50:00.934Z,28.52
2018-06-28T17:52:29.272Z,28.39
2018-06-28T17:54:57.610Z,28.26
2018-06-28T17:57:25.937Z,28.21
2018-06-28T17:59:53.907Z,28.09
2018-06-28T18:02:27.201Z,27.88
2018-06-28T18:04:51.161Z,27.84
2018-06-28T18:07:19.448Z,27.81
2018-06-28T18:09:47.763Z,27.79
2018-06-28T18:12:16.086Z,27.79
2018-06-28T18:14:44.457Z,27.75
2018-06-28T18:17:12.757Z,27.74
2018-06-28T18:19:40.504Z,27.69
2018-06-28T18:22:08.815Z,27.62
2018-06-28T18:24:37.722Z,27.54
2018-06-28T18:27:06.035Z,27.47
2018-06-28T18:29:34.354Z,27.35
2018-06-28T18:32:02.941Z,27.25
2018-06-28T18:34:32.566Z,27.24
2018-06-28T18:37:00.885Z,27.21
2018-06-28T18:39:29.785Z,27.06
2018-06-28T18:41:58.098Z,27.00
2018-06-28T18:44:26.425Z,26.93
2018-06-28T18:46:54.737Z,26.89
2018-06-28T18:49:23.079Z,26.89
2018-06-28T18:51:50.814Z,26.84
2018-06-28T18:54:19.711Z,26.81
2018-06-28T18:56:48.171Z,26.72
2018-06-28T18:59:16.609Z,26.67
2018-06-28T19:01:45.000Z,26.59
2018-06-28T19:04:13.264Z,26.53
2018-06-28T19:06:41.013Z,26.41
2018-06-28T19:09:09.920Z,26.29
2018-06-28T19:11:38.510Z,26.16
2018-06-28T19:14:06.288Z,26.11
2018-06-28T19:16:40.841Z,26.09
2018-06-28T19:19:09.214Z,26.01
2018-06-28T19:21:37.525Z,26.04
2018-06-28T19:24:05.832Z,26.00
2018-06-28T19:26:33.579Z,26.02
2018-06-28T19:29:02.594Z,26.07
2018-06-28T19:31:31.801Z,26.05
2018-06-28T19:34:00.111Z,26.06
2018-06-28T19:36:46.274Z,26.01
2018-06-28T19:39:14.625Z,26.00
2018-06-28T19:41:47.357Z,25.97
2018-06-28T19:44:15.712Z,25.95
2018-06-28T19:46:44.285Z,25.85
2018-06-28T19:49:13.194Z,25.36
2018-06-28T19:51:40.940Z,24.84
2018-06-28T19:54:15.285Z,24.50
2018-06-28T19:56:43.195Z,24.16
2018-06-28T19:59:11.541Z,23.84
2018-06-28T20:01:40.445Z,23.52
2018-06-28T20:04:09.673Z,23.24
2018-06-28T20:06:38.005Z,22.97
2018-06-28T20:09:06.319Z,22.78
2018-06-28T20:11:34.647Z,22.65
2018-06-28T20:14:11.901Z,22.54
2018-06-28T20:16:42.722Z,22.43
2018-06-28T20:19:13.477Z,22.38
2018-06-28T20:21:41.723Z,22.37
2018-06-28T20:24:10.082Z,22.18
2018-06-28T20:26:38.408Z,22.20
2018-06-28T20:29:06.728Z,22.49
2018-06-28T20:31:40.761Z,22.77
2018-06-28T20:34:09.100Z,22.89
2018-06-28T20:36:37.427Z,22.81
2018-06-28T20:39:05.191Z,22.48
2018-06-28T20:41:33.513Z,22.11
2018-06-28T20:44:08.878Z,21.88
2018-06-28T20:46:43.106Z,21.73
2018-06-28T20:49:10.846Z,21.58
2018-06-28T20:51:39.969Z,21.41
2018-06-28T20:54:07.504Z,21.28
2018-06-28T20:56:36.409Z,21.11
2018-06-28T20:59:04.221Z,20.86
2018-06-28T21:01:33.062Z,20.76
2018-06-28T21:04:05.941Z,20.65
2018-06-28T21:06:33.588Z,20.65
2018-06-28T21:09:01.948Z,20.68
2018-06-28T21:11:29.688Z,20.62
2018-06-28T21:13:58.085Z,20.63
2018-06-28T21:16:28.933Z,20.62
2018-06-28T21:19:06.061Z,20.54
2018-06-28T21:21:34.675Z,20.69
2018-06-28T21:24:07.155Z,20.89
2018-06-28T21:26:35.668Z,21.08
2018-06-28T21:29:04.009Z,21.28
2018-06-28T21:34:00.947Z,21.36
2018-06-28T21:36:29.145Z,21.16
2018-06-28T21:38:56.899Z,20.94
2018-06-28T21:41:25.194Z,20.87
2018-06-28T21:43:54.445Z,20.69
2018-06-28T21:46:22.785Z,20.45
2018-06-28T21:48:51.123Z,20.22
2018-06-28T21:51:19.205Z,20.12
2018-06-28T21:53:48.151Z,20.08
2018-06-28T21:56:16.835Z,19.92
2018-06-28T21:58:45.174Z,19.78
2018-06-28T22:01:13.491Z,19.79
2018-06-28T22:03:42.875Z,19.79
2018-06-28T22:06:10.865Z,19.67
2018-06-28T22:08:44.190Z,19.52
2018-06-28T22:11:11.238Z,19.44
2018-06-28T22:13:40.247Z,19.41
2018-06-28T22:16:07.920Z,19.34
2018-06-28T22:18:36.826Z,19.58
2018-06-28T22:21:04.608Z,19.81
2018-06-28T22:23:33.504Z,19.90
2018-06-28T22:26:03.757Z,19.74
2018-06-28T22:28:31.786Z,19.57
2018-06-28T22:31:01.329Z,19.41
2018-06-28T22:33:29.644Z,19.34
2018-06-28T22:35:57.382Z,19.35
2018-06-28T22:38:26.281Z,19.27
2018-06-28T22:40:54.602Z,19.24
2018-06-28T22:43:23.027Z,19.32
2018-06-28T22:45:50.719Z,19.39
2018-06-28T22:48:21.672Z,19.25
2018-06-28T22:50:50.112Z,19.01
2018-06-28T22:53:18.420Z,18.89
2018-06-28T22:55:46.736Z,18.79
2018-06-28T22:58:14.761Z,18.69
2018-06-28T23:00:43.668Z,18.67
2018-06-28T23:03:11.976Z,18.65
2018-06-28T23:05:40.309Z,18.54
2018-06-28T23:08:08.628Z,18.49
2018-06-28T23:10:36.367Z,18.56
2018-06-28T23:13:05.300Z,18.51
2018-06-28T23:15:33.618Z,18.44
2018-06-28T23:18:01.939Z,18.32
2018-06-28T23:20:30.260Z,18.24
2018-06-28T23:22:58.028Z,18.17
2018-06-28T23:25:26.911Z,18.09
2018-06-28T23:27:54.656Z,17.98
2018-06-28T23:30:23.560Z,18.12
2018-06-28T23:32:51.312Z,18.38
2018-06-28T23:35:19.631Z,18.48
2018-06-28T23:37:47.950Z,18.65
2018-06-28T23:40:16.853Z,18.74
2018-06-28T23:42:45.194Z,18.74
2018-06-28T23:45:13.536Z,18.75
2018-06-28T23:47:41.908Z,18.54
2018-06-28T23:50:10.181Z,18.31
2018-06-28T23:52:37.932Z,18.20
2018-06-28T23:55:06.835Z,18.30
2018-06-28T23:57:35.155Z,18.43
